KLIC/LIC METAR and TAF weather

Enter ICAO airport designator
Station Type Date Time Source
KLIC METAR 2018/12/19 08:55 UTC NOAA

KLIC 190855Z AUTO 29009KT 10SM OVC110 00/M07 A2985 RMK AO2 SLP089 T00001067 55008


Station Type Date Time Source
KLIC Decoded METAR 2018/12/19 08:55 UTC NOAA

LIMON MUNICIPAL AIRPORT, CO, United States (KLIC) 39-16N 103-40W 1630M
Dec 19, 2018 - 03:55 AM EST / 2018.12.19 0855 UTC
Wind: from the WNW (290 degrees) at 10 MPH (9 KT):0
Visibility: 10 mile(s):0
Sky conditions: overcast
Temperature: 32.0 F (0.0 C)
Windchill: 23 F (-5 C):1
Dew Point: 19.9 F (-6.7 C)
Relative Humidity: 60%
Pressure (altimeter): 29.85 in. Hg (1010 hPa)
Pressure tendency: 0.02 inches (0.8 hPa) lower than three hours ago
ob: KLIC 190855Z AUTO 29009KT 10SM OVC110 00/M07 A2985 RMK AO2 SLP089 T00001067 55008
cycle: 9

Station Type Date Time Source
KLIC TAF UTC NOAA

Error!


Example: see airport list